Time;durP1;ratioP1;P1;durP2;ratioP2;P2;SDS_P1;SDS_P2;PMS_P1;PMS_P2;Temp;Humidity;BMP_temperature;BMP_pressure;BME280_temperature;BME280_humidity;BME280_pressure;Samples;Min_cycle;Max_cycle;Signal;HPM_P1;HPM_P2
2022/11/25 00:01:25;;;;;;;13.23;3.80;;;7.50;99.90;;;;;;4987287;28;20774;-75
2022/11/25 00:03:53;;;;;;;19.45;5.22;;;7.50;99.90;;;;;;4949324;29;20409;-76
2022/11/25 00:06:33;;;;;;;12.27;3.00;;;7.40;99.90;;;;;;4947859;29;20418;-78
2022/11/25 00:09:04;;;;;;;19.52;4.28;;;7.40;99.90;;;;;;4949538;29;20489;-77
2022/11/25 00:11:30;;;;;;;16.00;4.75;;;7.40;99.90;;;;;;4976895;28;20422;-77
2022/11/25 00:13:56;;;;;;;19.45;3.97;;;7.40;99.90;;;;;;4988488;28;20773;-77
2022/11/25 00:16:25;;;;;;;14.70;4.20;;;7.60;99.90;;;;;;4970096;28;20525;-77
2022/11/25 00:18:52;;;;;;;18.30;3.78;;;7.40;99.90;;;;;;4987905;28;20797;-76
2022/11/25 00:21:21;;;;;;;20.95;5.20;;;7.50;99.90;;;;;;4986250;28;20841;-76
2022/11/25 00:23:52;;;;;;;15.77;3.58;;;7.40;99.90;;;;;;4987844;28;20819;-77
2022/11/25 00:26:18;;;;;;;13.13;4.40;;;7.40;99.90;;;;;;4987446;28;20837;-76
2022/11/25 00:28:45;;;;;;;22.25;4.38;;;7.60;99.90;;;;;;4986058;28;20461;-76
2022/11/25 00:31:13;;;;;;;17.80;4.90;;;7.50;99.90;;;;;;4987467;28;20426;-77
2022/11/25 00:33:39;;;;;;;16.20;3.45;;;7.60;99.90;;;;;;4983437;28;20420;-76
2022/11/25 00:36:09;;;;;;;17.50;3.92;;;7.50;99.90;;;;;;4967226;28;20475;-76
2022/11/25 00:38:35;;;;;;;20.15;4.15;;;7.40;99.90;;;;;;4967950;28;20499;-76
2022/11/25 00:46:29;;;;;;;14.20;3.00;;;7.40;99.90;;;;;;4967932;28;20435;-76
2022/11/25 00:48:55;;;;;;;15.35;3.95;;;7.50;99.90;;;;;;4968523;28;20415;-76
2022/11/25 00:51:21;;;;;;;15.75;3.92;;;7.60;99.90;;;;;;4966799;28;20745;-76
2022/11/25 00:53:47;;;;;;;19.50;4.38;;;7.60;99.90;;;;;;4968519;28;20411;-75
2022/11/25 00:56:12;;;;;;;17.35;4.10;;;7.60;99.90;;;;;;4968095;28;20424;-76
2022/11/25 00:58:39;;;;;;;19.08;4.07;;;7.50;99.90;;;;;;4967625;28;20408;-75
2022/11/25 01:01:08;;;;;;;18.25;3.88;;;7.50;99.90;;;;;;4989906;28;20498;-77
2022/11/25 01:03:36;;;;;;;18.85;4.78;;;7.50;99.90;;;;;;4990630;28;20501;-76
2022/11/25 01:06:08;;;;;;;18.10;4.28;;;7.50;99.90;;;;;;4972034;28;20850;-77
2022/11/25 01:08:35;;;;;;;14.80;3.30;;;7.60;99.90;;;;;;4990780;28;20426;-75
2022/11/25 01:11:03;;;;;;;18.52;3.72;;;7.50;99.90;;;;;;4990843;28;20410;-75
2022/11/25 01:13:29;;;;;;;16.77;4.63;;;7.60;99.90;;;;;;4990407;28;20411;-77
2022/11/25 01:15:55;;;;;;;19.10;4.60;;;7.60;99.90;;;;;;4990350;28;20507;-76
2022/11/25 01:18:21;;;;;;;15.63;3.60;;;7.60;99.90;;;;;;4990248;28;20414;-75
2022/11/25 01:20:46;;;;;;;16.37;4.00;;;7.70;99.90;;;;;;4989692;28;20857;-75
2022/11/25 01:23:12;;;;;;;15.40;4.13;;;7.60;99.90;;;;;;4990767;28;20483;-75
2022/11/25 01:25:38;;;;;;;15.90;4.80;;;7.70;99.90;;;;;;4972850;28;20418;-76
2022/11/25 01:28:05;;;;;;;15.98;3.30;;;7.70;99.90;;;;;;4990003;28;20445;-76
2022/11/25 01:30:31;;;;;;;16.27;4.43;;;7.90;99.90;;;;;;4971684;28;20424;-77
2022/11/25 01:32:57;;;;;;;19.50;5.63;;;7.80;99.90;;;;;;4990377;28;20781;-76
2022/11/25 01:35:22;;;;;;;16.33;3.97;;;7.80;99.90;;;;;;4989063;28;20458;-76
2022/11/25 01:37:48;;;;;;;12.63;3.53;;;7.70;99.90;;;;;;4989917;28;20418;-75
2022/11/25 01:40:14;;;;;;;18.50;4.03;;;7.80;99.90;;;;;;4989881;28;20410;-76
2022/11/25 01:42:45;;;;;;;16.02;4.00;;;7.90;99.90;;;;;;4972161;28;20446;-76
2022/11/25 01:45:32;;;;;;;20.33;5.40;;;7.90;99.90;;;;;;4989870;28;20403;-76
2022/11/25 01:48:05;;;;;;;19.60;4.30;;;7.90;99.90;;;;;;4990312;28;20906;-76
2022/11/25 01:50:33;;;;;;;18.30;5.47;;;7.70;99.90;;;;;;4988880;28;20604;-77
2022/11/25 01:53:00;;;;;;;13.63;3.47;;;7.80;99.90;;;;;;4989726;28;20414;-76
2022/11/25 01:55:29;;;;;;;17.08;4.65;;;7.80;99.90;;;;;;4990024;28;20410;-78
2022/11/25 01:58:04;;;;;;;21.33;4.53;;;7.70;99.90;;;;;;4989795;28;20444;-76
2022/11/25 02:00:30;;;;;;;16.63;4.70;;;7.70;99.90;;;;;;4968310;28;20777;-76
2022/11/25 02:02:57;;;;;;;18.27;4.28;;;7.60;99.90;;;;;;4989908;28;20419;-76
2022/11/25 02:05:31;;;;;;;13.60;4.03;;;7.80;99.90;;;;;;4987910;28;20415;-78
2022/11/25 02:07:58;;;;;;;18.27;4.28;;;7.70;99.90;;;;;;4988997;28;20541;-76
2022/11/25 02:10:27;;;;;;;16.25;3.75;;;7.70;99.90;;;;;;5059290;22;20726;-76
2022/11/25 02:12:54;;;;;;;15.98;4.50;;;7.90;99.90;;;;;;4972475;28;20951;-75
2022/11/25 02:15:20;;;;;;;20.07;5.00;;;7.70;99.90;;;;;;4990725;28;20480;-75
2022/11/25 02:17:46;;;;;;;21.20;4.97;;;7.70;99.90;;;;;;4974734;28;20411;-75
2022/11/25 02:20:18;;;;;;;20.45;5.50;;;7.70;99.90;;;;;;4990891;28;20422;-75
2022/11/25 02:23:08;;;;;;;22.73;5.07;;;7.50;99.90;;;;;;4991512;28;20918;-77
2022/11/25 02:25:35;;;;;;;16.27;4.17;;;7.60;99.90;;;;;;4991081;28;20418;-77
2022/11/25 02:28:17;;;;;;;16.35;4.07;;;7.80;99.90;;;;;;4974590;28;20762;-76
2022/11/25 02:30:44;;;;;;;19.17;4.75;;;7.50;99.90;;;;;;4992178;28;20549;-76
2022/11/25 02:33:09;;;;;;;20.58;3.83;;;7.70;99.90;;;;;;4991275;28;20418;-77
2022/11/25 02:35:37;;;;;;;16.63;3.83;;;7.60;99.90;;;;;;4990938;28;20764;-76
2022/11/25 02:38:06;;;;;;;18.70;4.40;;;7.60;99.90;;;;;;4987179;28;20513;-76
2022/11/25 02:40:38;;;;;;;18.10;5.60;;;7.50;99.90;;;;;;4991400;28;20406;-76
2022/11/25 02:43:04;;;;;;;25.08;4.75;;;7.70;99.90;;;;;;4974199;28;20428;-76
2022/11/25 02:45:51;;;;;;;16.20;4.00;;;7.50;99.90;;;;;;4992038;28;20497;-75
2022/11/25 02:48:17;;;;;;;15.10;3.85;;;7.70;99.90;;;;;;5003635;28;20427;-76
2022/11/25 02:50:43;;;;;;;17.38;5.45;;;7.50;99.90;;;;;;4993121;28;20788;-77
2022/11/25 02:53:09;;;;;;;12.80;4.28;;;7.70;99.90;;;;;;4993064;28;20429;-76
2022/11/25 02:55:35;;;;;;;17.77;4.43;;;7.70;99.90;;;;;;4992881;28;20512;-75
2022/11/25 02:58:01;;;;;;;17.70;4.22;;;7.70;99.90;;;;;;4992747;28;20496;-75
2022/11/25 03:00:27;;;;;;;19.52;4.72;;;7.60;99.90;;;;;;5010015;28;20778;-78
2022/11/25 03:02:53;;;;;;;17.70;3.97;;;7.60;99.90;;;;;;5010335;28;21209;-76
2022/11/25 03:05:20;;;;;;;20.97;5.57;;;7.60;99.90;;;;;;5009394;28;20469;-74
2022/11/25 03:07:46;;;;;;;15.10;3.80;;;7.70;99.90;;;;;;5010502;28;20861;-76
2022/11/25 03:10:12;;;;;;;21.08;4.88;;;7.70;99.90;;;;;;5010166;28;20495;-76
2022/11/25 03:12:38;;;;;;;16.70;4.90;;;7.70;99.90;;;;;;5009474;28;20429;-75
2022/11/25 03:15:04;;;;;;;21.43;5.00;;;7.80;99.90;;;;;;5010070;28;20413;-76
2022/11/25 03:17:30;;;;;;;17.30;4.75;;;7.90;99.90;;;;;;5009756;28;20470;-75
2022/11/25 03:19:56;;;;;;;17.45;4.68;;;7.70;99.90;;;;;;5008971;28;20420;-76
2022/11/25 03:22:21;;;;;;;20.55;4.57;;;7.90;99.90;;;;;;4996880;28;20418;-77
2022/11/25 03:24:47;;;;;;;15.88;4.55;;;7.90;99.90;;;;;;5006421;28;20839;-76
2022/11/25 03:27:13;;;;;;;19.20;4.13;;;7.80;99.90;;;;;;5009678;28;20440;-77
2022/11/25 03:29:39;;;;;;;20.42;5.97;;;7.80;99.90;;;;;;5009377;28;20466;-75
2022/11/25 03:32:05;;;;;;;17.95;4.63;;;7.80;99.90;;;;;;4991646;28;20424;-75
2022/11/25 03:34:30;;;;;;;15.60;4.05;;;7.80;99.90;;;;;;5008390;28;20408;-76
2022/11/25 03:36:56;;;;;;;16.70;4.43;;;8.00;99.90;;;;;;4991937;28;20427;-76
2022/11/25 03:39:22;;;;;;;22.43;5.23;;;8.00;99.90;;;;;;4991826;28;20419;-77
2022/11/25 03:41:49;;;;;;;15.77;3.87;;;7.70;99.90;;;;;;5009469;28;20768;-78
2022/11/25 03:44:14;;;;;;;14.90;4.63;;;8.10;99.90;;;;;;5009780;28;20408;-76
2022/11/25 03:46:40;;;;;;;18.23;4.80;;;7.90;99.90;;;;;;5008967;28;20439;-75
2022/11/25 03:49:06;;;;;;;16.17;3.83;;;7.90;99.90;;;;;;5008249;28;20497;-77
2022/11/25 03:51:32;;;;;;;22.50;5.20;;;7.80;99.90;;;;;;4991533;28;20482;-76
2022/11/25 03:53:57;;;;;;;16.03;4.63;;;8.00;99.90;;;;;;5009434;28;20440;-76
2022/11/25 03:56:23;;;;;;;14.17;4.13;;;7.90;99.90;;;;;;5009123;28;20408;-76
2022/11/25 03:58:49;;;;;;;19.70;5.90;;;7.90;99.90;;;;;;4991795;28;20479;-75
2022/11/25 04:01:15;;;;;;;16.33;5.13;;;8.10;99.90;;;;;;5009738;28;20423;-77
2022/11/25 04:03:40;;;;;;;15.82;5.35;;;7.90;99.90;;;;;;5009029;28;20666;-76
2022/11/25 04:06:06;;;;;;;15.30;4.85;;;8.00;99.90;;;;;;4990837;28;20428;-76
2022/11/25 04:08:32;;;;;;;20.02;5.68;;;7.90;99.90;;;;;;4991445;28;20831;-76
2022/11/25 04:10:57;;;;;;;16.15;5.10;;;8.20;99.90;;;;;;5008661;28;20806;-76
2022/11/25 04:13:23;;;;;;;17.70;5.45;;;7.90;99.90;;;;;;5008535;28;20417;-76
2022/11/25 04:15:50;;;;;;;17.37;4.87;;;8.20;99.90;;;;;;5008907;28;20407;-77
2022/11/25 04:18:18;;;;;;;17.93;5.90;;;7.90;99.90;;;;;;4994144;28;20454;-77
2022/11/25 04:20:44;;;;;;;17.53;4.87;;;8.00;99.90;;;;;;4988700;28;20406;-76
2022/11/25 04:23:11;;;;;;;21.42;5.35;;;8.00;99.90;;;;;;4989736;28;20425;-77
2022/11/25 04:25:38;;;;;;;23.48;6.97;;;7.90;99.90;;;;;;4989160;28;20766;-75
2022/11/25 04:28:03;;;;;;;21.80;6.07;;;8.10;99.90;;;;;;4989220;28;20422;-76
2022/11/25 04:30:29;;;;;;;19.10;5.40;;;8.20;99.90;;;;;;4971545;28;20472;-75
2022/11/25 04:32:56;;;;;;;18.47;5.33;;;7.90;99.90;;;;;;4989225;28;20777;-78
2022/11/25 04:35:21;;;;;;;16.52;5.95;;;8.20;99.90;;;;;;4989362;28;20490;-75
2022/11/25 04:37:47;;;;;;;18.42;5.15;;;8.10;99.90;;;;;;4993195;28;20773;-76
2022/11/25 04:40:13;;;;;;;18.27;4.85;;;8.20;99.90;;;;;;4993219;28;20418;-76
2022/11/25 04:42:39;;;;;;;22.67;5.72;;;8.00;99.90;;;;;;4975592;28;20788;-76
2022/11/25 04:45:14;;;;;;;19.30;5.65;;;8.20;99.90;;;;;;4993124;28;20417;-75
2022/11/25 04:47:40;;;;;;;19.33;5.53;;;8.00;99.90;;;;;;5004153;28;20434;-76
2022/11/25 04:50:08;;;;;;;21.08;5.75;;;8.30;99.90;;;;;;5010757;28;20416;-77
2022/11/25 04:52:34;;;;;;;18.77;6.25;;;8.10;99.90;;;;;;5011933;28;20436;-77
2022/11/25 04:55:00;;;;;;;26.33;6.63;;;8.10;99.90;;;;;;4994477;28;20448;-76
2022/11/25 04:57:25;;;;;;;17.95;5.45;;;8.30;99.90;;;;;;5012185;28;20437;-76
2022/11/25 04:59:51;;;;;;;24.30;6.22;;;8.10;99.90;;;;;;5012232;28;20966;-76
2022/11/25 05:02:18;;;;;;;23.38;6.25;;;8.30;99.90;;;;;;5012501;28;20393;-76
2022/11/25 05:04:46;;;;;;;20.70;6.32;;;8.30;99.90;;;;;;5011256;28;20440;-77
2022/11/25 05:07:13;;;;;;;19.23;5.63;;;8.30;99.90;;;;;;4994146;28;20432;-76
2022/11/25 05:09:39;;;;;;;22.92;6.43;;;8.10;99.90;;;;;;5011633;28;20409;-77
2022/11/25 05:12:07;;;;;;;23.05;5.82;;;8.20;99.90;;;;;;5011333;28;20815;-77
2022/11/25 05:14:34;;;;;;;21.38;5.75;;;8.30;99.90;;;;;;4993839;28;20925;-77
2022/11/25 05:17:01;;;;;;;18.38;4.65;;;8.30;99.90;;;;;;4987822;28;20423;-77
2022/11/25 05:19:27;;;;;;;16.67;5.32;;;8.20;99.90;;;;;;4973155;28;20733;-77
2022/11/25 05:21:53;;;;;;;21.20;6.80;;;8.20;99.90;;;;;;4991412;28;20422;-76
2022/11/25 05:24:18;;;;;;;25.57;6.10;;;8.10;99.90;;;;;;4991610;28;20901;-76
2022/11/25 05:26:44;;;;;;;21.40;6.50;;;8.30;99.90;;;;;;4991971;28;20434;-76
2022/11/25 05:29:10;;;;;;;14.93;4.80;;;8.30;99.90;;;;;;4974427;28;20422;-75
2022/11/25 05:31:36;;;;;;;17.90;5.30;;;8.20;99.90;;;;;;4991183;28;20437;-75
2022/11/25 05:34:02;;;;;;;17.87;5.47;;;8.10;99.90;;;;;;4990673;28;20411;-77
2022/11/25 05:36:28;;;;;;;22.02;6.82;;;8.30;99.90;;;;;;4991261;28;20817;-76
2022/11/25 05:38:55;;;;;;;16.70;4.90;;;8.30;99.90;;;;;;4991908;28;20830;-76
2022/11/25 05:41:21;;;;;;;17.83;4.60;;;8.20;99.90;;;;;;4991291;28;20433;-76
2022/11/25 05:43:47;;;;;;;15.32;5.13;;;8.30;99.90;;;;;;4991567;28;20403;-75
2022/11/25 05:46:13;;;;;;;16.33;4.55;;;8.40;99.90;;;;;;4991676;28;20944;-77
2022/11/25 05:48:39;;;;;;;16.15;5.07;;;8.30;99.90;;;;;;4991957;28;20421;-76
2022/11/25 05:51:05;;;;;;;18.40;5.38;;;8.20;99.90;;;;;;5010542;28;20810;-76
2022/11/25 05:53:32;;;;;;;15.73;5.40;;;8.20;99.90;;;;;;5010676;28;20496;-75
2022/11/25 05:56:00;;;;;;;17.08;4.63;;;8.40;99.90;;;;;;5011368;28;20498;-77
2022/11/25 05:58:28;;;;;;;16.83;5.20;;;8.40;99.90;;;;;;5010627;28;20899;-76
2022/11/25 06:00:54;;;;;;;16.02;4.60;;;8.20;99.90;;;;;;5010352;28;20416;-75
2022/11/25 06:03:26;;;;;;;18.02;5.28;;;8.50;99.90;;;;;;5010122;28;20506;-78
2022/11/25 06:05:54;;;;;;;17.67;4.90;;;8.20;99.90;;;;;;5009732;28;20495;-76
2022/11/25 06:08:20;;;;;;;15.73;4.55;;;8.20;99.90;;;;;;5010334;28;20397;-76
2022/11/25 06:10:46;;;;;;;18.48;5.55;;;8.30;99.90;;;;;;5010875;28;20527;-77
2022/11/25 06:13:11;;;;;;;20.45;5.80;;;8.50;99.90;;;;;;5010359;28;20413;-76
2022/11/25 06:15:42;;;;;;;15.77;4.17;;;8.50;99.90;;;;;;5010200;28;20412;-76
2022/11/25 06:18:08;;;;;;;19.73;5.85;;;8.40;99.90;;;;;;5010239;28;21040;-76
2022/11/25 06:20:34;;;;;;;15.30;4.78;;;8.30;99.90;;;;;;5008951;28;20405;-77
2022/11/25 06:23:00;;;;;;;16.95;5.45;;;8.30;99.90;;;;;;5010148;28;20424;-76
2022/11/25 06:25:25;;;;;;;18.80;5.53;;;8.20;99.90;;;;;;5009812;28;20460;-77
2022/11/25 06:27:52;;;;;;;16.80;5.80;;;8.30;99.90;;;;;;5009958;28;20527;-76
2022/11/25 06:30:18;;;;;;;18.08;5.90;;;8.50;99.90;;;;;;5010450;28;20486;-76
2022/11/25 06:32:44;;;;;;;18.80;5.72;;;8.20;99.90;;;;;;5010260;28;20420;-77
2022/11/25 06:35:10;;;;;;;17.95;5.82;;;8.40;99.90;;;;;;5009185;28;20412;-76
2022/11/25 06:37:36;;;;;;;19.33;5.40;;;8.40;99.90;;;;;;5009844;28;20407;-76
2022/11/25 06:40:03;;;;;;;15.80;5.95;;;8.40;99.90;;;;;;5010278;28;20756;-76
2022/11/25 06:42:30;;;;;;;20.38;6.45;;;8.40;99.90;;;;;;4992890;28;20492;-76
2022/11/25 06:44:56;;;;;;;16.50;5.55;;;8.50;99.90;;;;;;5010858;28;20536;-76
2022/11/25 06:47:21;;;;;;;16.90;5.43;;;8.40;99.90;;;;;;5010140;28;20523;-75
2022/11/25 06:49:48;;;;;;;17.63;5.47;;;8.30;99.90;;;;;;5010709;28;20413;-75
2022/11/25 06:52:14;;;;;;;15.30;4.50;;;8.30;99.90;;;;;;5011254;28;20457;-74
2022/11/25 06:54:40;;;;;;;16.10;5.15;;;8.50;99.90;;;;;;5011414;28;20488;-74
2022/11/25 06:57:10;;;;;;;16.70;5.45;;;8.40;99.90;;;;;;5010863;28;20416;-75
2022/11/25 06:59:36;;;;;;;12.65;4.72;;;8.40;99.90;;;;;;5010246;28;20409;-76
2022/11/25 07:02:03;;;;;;;16.85;5.55;;;8.30;99.90;;;;;;5010897;28;20499;-75
2022/11/25 07:04:29;;;;;;;10.23;4.65;;;8.30;99.90;;;;;;4992097;28;20413;-75
2022/11/25 07:06:55;;;;;;;16.88;6.50;;;8.10;99.90;;;;;;5010430;28;20440;-75
2022/11/25 07:09:21;;;;;;;17.60;5.65;;;8.10;99.90;;;;;;5009867;28;20475;-76
2022/11/25 07:11:48;;;;;;;19.70;5.75;;;8.10;99.90;;;;;;5010257;28;20733;-77
2022/11/25 07:14:15;;;;;;;19.50;6.78;;;8.10;99.90;;;;;;5010059;28;20496;-76
2022/11/25 07:16:43;;;;;;;17.33;6.20;;;8.20;99.90;;;;;;5009203;28;20814;-76
2022/11/25 07:19:14;;;;;;;14.00;5.65;;;8.00;99.90;;;;;;5009000;28;20451;-75
2022/11/25 07:21:40;;;;;;;16.58;6.43;;;8.10;99.90;;;;;;5009549;28;20405;-77
2022/11/25 07:24:06;;;;;;;15.57;5.82;;;7.90;99.90;;;;;;5009711;28;20440;-78
2022/11/25 07:26:37;;;;;;;15.80;6.03;;;8.00;99.90;;;;;;5009129;28;20511;-78
2022/11/25 07:29:06;;;;;;;15.60;5.93;;;8.00;99.90;;;;;;5009791;28;20435;-76
2022/11/25 07:31:35;;;;;;;13.82;5.53;;;7.80;99.90;;;;;;5009367;28;20773;-76
2022/11/25 07:34:02;;;;;;;16.90;6.05;;;8.00;99.90;;;;;;4991213;28;20745;-77
2022/11/25 07:36:29;;;;;;;14.50;4.55;;;7.80;99.90;;;;;;5009476;28;20503;-77
2022/11/25 07:38:57;;;;;;;11.73;5.10;;;7.90;99.90;;;;;;4991881;28;20409;-77
2022/11/25 07:41:25;;;;;;;13.90;5.25;;;7.70;99.90;;;;;;5009128;28;20409;-77
2022/11/25 07:43:53;;;;;;;16.83;5.50;;;7.80;99.90;;;;;;5009558;28;20397;-76
2022/11/25 07:46:22;;;;;;;12.65;4.47;;;7.90;99.90;;;;;;4998632;28;20477;-76
2022/11/25 07:48:48;;;;;;;12.18;5.25;;;7.80;99.90;;;;;;4987904;28;20411;-80
2022/11/25 07:51:15;;;;;;;11.25;4.50;;;7.70;99.90;;;;;;4990061;28;20421;-75
2022/11/25 07:53:41;;;;;;;13.25;4.50;;;7.80;99.90;;;;;;4989256;28;20418;-76
2022/11/25 07:56:07;;;;;;;13.10;4.33;;;7.70;99.90;;;;;;4990015;28;20504;-76
2022/11/25 07:58:32;;;;;;;18.92;6.57;;;7.80;99.90;;;;;;4989640;28;20784;-77
2022/11/25 08:01:03;;;;;;;12.80;5.03;;;7.90;99.90;;;;;;4989923;28;20450;-76
2022/11/25 08:03:30;;;;;;;13.10;5.22;;;7.60;99.90;;;;;;4988704;28;20824;-76
2022/11/25 08:05:59;;;;;;;13.30;4.90;;;7.90;99.90;;;;;;4989482;28;20418;-77
2022/11/25 08:08:25;;;;;;;13.88;3.83;;;7.70;99.90;;;;;;4988966;28;20559;-77
2022/11/25 08:10:51;;;;;;;16.73;4.90;;;7.70;99.90;;;;;;4992284;28;20493;-76
2022/11/25 08:13:17;;;;;;;9.38;3.72;;;7.90;99.90;;;;;;4993983;28;20419;-77
2022/11/25 08:15:42;;;;;;;16.55;4.30;;;7.80;99.90;;;;;;4993246;28;20828;-76
2022/11/25 08:18:08;;;;;;;11.68;3.95;;;7.70;99.90;;;;;;4968403;28;20428;-77
2022/11/25 08:20:34;;;;;;;14.95;5.22;;;7.90;99.90;;;;;;5012275;28;20441;-76
2022/11/25 08:23:00;;;;;;;12.38;4.03;;;7.80;99.90;;;;;;5012931;28;20416;-76
2022/11/25 08:25:25;;;;;;;11.27;3.97;;;7.80;99.90;;;;;;5012779;28;20413;-77
2022/11/25 08:27:51;;;;;;;8.73;4.00;;;7.80;99.90;;;;;;5012810;28;20437;-78
2022/11/25 08:30:17;;;;;;;13.47;4.30;;;7.80;99.90;;;;;;4994347;28;20456;-76
2022/11/25 08:32:43;;;;;;;10.52;4.25;;;8.00;99.90;;;;;;5010923;28;20432;-76
2022/11/25 08:35:09;;;;;;;12.13;4.13;;;8.20;99.90;;;;;;5009767;28;20404;-77
2022/11/25 08:37:35;;;;;;;10.57;3.85;;;8.00;99.90;;;;;;5010340;28;20404;-77
2022/11/25 08:40:00;;;;;;;10.38;4.97;;;8.00;99.90;;;;;;5009860;28;20904;-77
2022/11/25 08:42:26;;;;;;;10.85;4.63;;;8.10;99.90;;;;;;5010019;28;20443;-77
2022/11/25 08:44:54;;;;;;;7.57;3.63;;;8.00;99.90;;;;;;5010685;28;20392;-78
2022/11/25 08:47:20;;;;;;;11.55;4.05;;;8.20;99.90;;;;;;5005533;28;20509;-78
2022/11/25 08:49:49;;;;;;;11.75;4.00;;;8.10;99.90;;;;;;4972797;28;20788;-77
2022/11/25 08:52:14;;;;;;;8.90;3.30;;;8.10;99.90;;;;;;4990451;28;20422;-78
2022/11/25 08:54:40;;;;;;;12.40;3.90;;;8.20;99.90;;;;;;4990058;28;20407;-77
2022/11/25 08:57:06;;;;;;;9.18;4.18;;;8.20;99.90;;;;;;4990594;28;20422;-78
2022/11/25 08:59:31;;;;;;;13.98;5.07;;;8.30;99.90;;;;;;4989391;28;20765;-80
2022/11/25 09:01:57;;;;;;;12.95;4.03;;;8.10;99.90;;;;;;4972285;28;20458;-77
2022/11/25 09:04:23;;;;;;;13.65;4.20;;;8.20;99.90;;;;;;4989028;28;20486;-77
2022/11/25 09:06:48;;;;;;;11.82;4.43;;;8.30;99.90;;;;;;4989517;28;20426;-77
2022/11/25 09:09:14;;;;;;;9.15;4.30;;;8.30;99.90;;;;;;4990752;28;20502;-77
2022/11/25 09:11:41;;;;;;;9.40;4.03;;;8.40;99.90;;;;;;4989819;28;20463;-77
2022/11/25 09:14:06;;;;;;;10.52;3.80;;;8.30;99.90;;;;;;4989889;28;20472;-77
2022/11/25 09:16:32;;;;;;;8.88;3.40;;;8.50;99.90;;;;;;4999457;28;21232;-77
2022/11/25 09:18:58;;;;;;;13.15;4.72;;;8.40;99.90;;;;;;4989364;28;20703;-78
2022/11/25 09:21:24;;;;;;;10.27;4.60;;;8.60;99.90;;;;;;4988623;28;20437;-76
2022/11/25 09:23:52;;;;;;;7.20;3.20;;;8.50;99.90;;;;;;4989711;28;20402;-76
2022/11/25 09:26:29;;;;;;;11.82;4.55;;;8.60;99.90;;;;;;4989495;28;20426;-78
2022/11/25 09:28:55;;;;;;;9.53;4.53;;;8.60;99.90;;;;;;4994732;28;20771;-77
2022/11/25 09:31:22;;;;;;;9.05;3.33;;;8.60;99.90;;;;;;5008751;28;20455;-78
2022/11/25 09:33:48;;;;;;;10.88;3.75;;;8.60;99.90;;;;;;5008118;28;20409;-77
2022/11/25 09:36:16;;;;;;;11.63;3.43;;;8.60;99.90;;;;;;5009861;28;20550;-78
2022/11/25 09:38:45;;;;;;;13.05;4.65;;;8.80;99.90;;;;;;5008936;28;20968;-76
2022/11/25 09:48:13;;;;;;;11.20;4.97;;;9.10;99.90;;;;;;4969887;28;20600;-78
2022/11/25 09:50:42;;;;;;;7.85;3.28;;;8.90;99.90;;;;;;4952589;28;20427;-77
2022/11/25 09:53:19;;;;;;;7.28;3.50;;;8.90;99.90;;;;;;4969826;28;20424;-77
2022/11/25 09:55:48;;;;;;;8.88;3.65;;;8.90;99.90;;;;;;4970448;28;20424;-79
2022/11/25 09:58:34;;;;;;;11.07;3.67;;;9.00;99.90;;;;;;4970187;28;20415;-78
2022/11/25 10:01:05;;;;;;;9.30;3.53;;;9.00;99.90;;;;;;4969525;28;20732;-78
2022/11/25 10:03:43;;;;;;;10.50;3.75;;;9.10;99.90;;;;;;4968499;28;20412;-77
2022/11/25 10:06:23;;;;;;;9.50;3.33;;;9.10;99.90;;;;;;4969173;28;20554;-77
2022/11/25 10:09:00;;;;;;;9.38;3.30;;;9.10;99.90;;;;;;4969935;28;20416;-78
2022/11/25 10:11:38;;;;;;;15.27;4.20;;;9.20;99.90;;;;;;4968888;28;20421;-78
2022/11/25 10:14:18;;;;;;;7.95;2.95;;;9.20;99.90;;;;;;4969608;28;20431;-77
2022/11/25 10:16:57;;;;;;;11.02;3.83;;;9.30;99.90;;;;;;4997109;28;20408;-77
2022/11/25 10:19:51;;;;;;;10.38;3.50;;;9.40;99.90;;;;;;5006887;28;20583;-77
2022/11/25 10:22:30;;;;;;;7.20;3.10;;;9.40;99.90;;;;;;5008757;28;20957;-77
2022/11/25 10:25:00;;;;;;;9.05;3.58;;;9.40;99.90;;;;;;5008538;28;20764;-77
2022/11/25 10:27:46;;;;;;;8.85;3.70;;;9.40;99.90;;;;;;5007990;28;20464;-78
2022/11/25 10:30:20;;;;;;;9.85;3.05;;;9.30;99.90;;;;;;5008935;28;20416;-77
2022/11/25 10:33:14;;;;;;;8.35;3.10;;;9.40;99.90;;;;;;5007920;28;20411;-77
2022/11/25 10:36:35;;;;;;;8.27;3.10;;;9.50;99.90;;;;;;4966739;28;20428;-77
2022/11/25 10:39:11;;;;;;;11.90;3.58;;;9.50;99.90;;;;;;4969288;28;20622;-78
2022/11/25 10:42:00;;;;;;;10.40;3.47;;;9.50;99.90;;;;;;5008381;28;20443;-78
2022/11/25 10:44:35;;;;;;;15.37;3.93;;;9.80;99.90;;;;;;4995611;28;21122;-78
2022/11/25 10:47:06;;;;;;;13.93;3.90;;;9.80;99.90;;;;;;4972083;28;20948;-78
2022/11/25 10:50:03;;;;;;;9.93;3.28;;;9.70;99.90;;;;;;4986987;28;20781;-77
2022/11/25 10:52:33;;;;;;;9.95;3.72;;;9.80;99.90;;;;;;4987906;28;20410;-77
2022/11/25 10:55:19;;;;;;;9.00;2.80;;;9.90;99.90;;;;;;4987557;28;20781;-77
2022/11/25 10:57:44;;;;;;;7.50;3.50;;;10.00;99.90;;;;;;4988626;28;20871;-77
2022/11/25 11:00:31;;;;;;;10.30;3.75;;;10.10;99.90;;;;;;4987676;28;20517;-77
2022/11/25 11:03:00;;;;;;;11.27;3.17;;;10.10;99.90;;;;;;4986485;28;20434;-76
2022/11/25 11:05:29;;;;;;;10.27;2.72;;;10.10;99.90;;;;;;4987214;28;20470;-77
2022/11/25 11:08:16;;;;;;;12.85;3.88;;;10.10;99.90;;;;;;4988146;28;20435;-77
2022/11/25 11:10:43;;;;;;;12.10;2.95;;;10.00;99.90;;;;;;4987078;28;20888;-77
2022/11/25 11:13:29;;;;;;;10.85;3.13;;;10.00;99.90;;;;;;4987290;28;20415;-76
2022/11/25 11:15:54;;;;;;;10.23;2.83;;;10.00;99.90;;;;;;4997185;28;20417;-78
2022/11/25 11:18:26;;;;;;;9.17;2.60;;;9.90;99.90;;;;;;4988787;28;20854;-77
2022/11/25 11:20:55;;;;;;;8.07;2.38;;;10.00;99.90;;;;;;4989417;28;20408;-79
2022/11/25 11:23:22;;;;;;;11.87;3.13;;;10.10;99.90;;;;;;4973456;28;20417;-76
2022/11/25 11:25:55;;;;;;;14.90;4.17;;;10.10;99.90;;;;;;4989922;28;20514;-78
2022/11/25 11:28:35;;;;;;;13.00;2.65;;;10.20;99.90;;;;;;5007416;28;20487;-77
2022/11/25 11:31:32;;;;;;;15.15;3.20;;;10.20;99.90;;;;;;5007405;28;20471;-77
2022/11/25 11:34:36;;;;;;;9.75;2.90;;;10.30;99.90;;;;;;5004551;28;20423;-80
2022/11/25 11:37:35;;;;;;;13.50;2.87;;;10.40;99.90;;;;;;5002568;28;21008;-78
2022/11/25 11:40:28;;;;;;;16.65;3.75;;;10.50;99.90;;;;;;5007102;28;20615;-78
2022/11/25 11:43:00;;;;;;;14.25;2.80;;;10.60;99.90;;;;;;5006869;28;20401;-77
2022/11/25 11:45:26;;;;;;;13.67;3.33;;;10.40;99.90;;;;;;5005182;28;20444;-77
2022/11/25 11:48:30;;;;;;;17.40;4.28;;;10.50;99.90;;;;;;4988101;28;20451;-78
2022/11/25 11:51:24;;;;;;;12.97;3.13;;;10.50;99.90;;;;;;4995602;28;20417;-78
2022/11/25 11:54:12;;;;;;;17.83;3.47;;;10.50;99.90;;;;;;5006450;28;20450;-78
2022/11/25 11:56:46;;;;;;;18.80;3.88;;;10.50;99.90;;;;;;4989186;28;20911;-78
2022/11/25 11:59:30;;;;;;;13.77;3.55;;;10.50;99.90;;;;;;5006590;28;20397;-77
2022/11/25 12:02:20;;;;;;;13.10;4.13;;;10.60;99.90;;;;;;5006219;28;20425;-78
2022/11/25 12:04:52;;;;;;;14.60;3.35;;;10.70;99.90;;;;;;4988465;28;20408;-77
2022/11/25 12:07:31;;;;;;;13.20;3.28;;;10.60;99.90;;;;;;4988010;28;20443;-80
2022/11/25 12:10:14;;;;;;;19.37;3.90;;;10.60;99.90;;;;;;5006100;28;20408;-77
2022/11/25 12:13:26;;;;;;;13.75;3.45;;;10.60;99.90;;;;;;5006191;28;20420;-78
2022/11/25 12:16:10;;;;;;;12.10;3.92;;;10.80;99.90;;;;;;4957247;28;20895;-77
2022/11/25 12:18:47;;;;;;;17.48;3.47;;;10.80;99.90;;;;;;5004612;28;20456;-77
2022/11/25 12:21:38;;;;;;;15.63;3.72;;;10.80;99.90;;;;;;5006765;28;20413;-77
2022/11/25 12:24:23;;;;;;;19.17;4.60;;;11.00;99.90;;;;;;5006738;28;20420;-78
2022/11/25 12:27:17;;;;;;;19.42;4.15;;;10.90;99.90;;;;;;5006147;28;21089;-77
2022/11/25 12:30:10;;;;;;;15.43;3.53;;;11.10;99.90;;;;;;5006822;28;20405;-77
2022/11/25 12:33:13;;;;;;;17.35;3.30;;;11.10;99.90;;;;;;5005449;28;20434;-78
2022/11/25 12:35:44;;;;;;;32.28;5.20;;;11.10;99.90;;;;;;5006422;28;20424;-77
2022/11/25 12:38:36;;;;;;;19.08;3.70;;;11.00;99.90;;;;;;5005720;28;20484;-76
2022/11/25 12:41:29;;;;;;;16.02;4.30;;;11.10;99.90;;;;;;5006456;28;20902;-78
2022/11/25 12:44:04;;;;;;;21.77;5.10;;;11.00;99.90;;;;;;4989105;28;20523;-78
2022/11/25 12:46:38;;;;;;;18.10;3.63;;;11.00;99.90;;;;;;4990149;28;20513;-77
2022/11/25 12:49:12;;;;;;;16.30;3.35;;;11.10;99.90;;;;;;4985547;28;20417;-78
2022/11/25 12:51:49;;;;;;;22.50;5.35;;;11.00;99.90;;;;;;4986428;28;20419;-78
2022/11/25 12:54:33;;;;;;;15.77;3.10;;;11.10;99.90;;;;;;4986853;28;20908;-78
2022/11/25 12:57:18;;;;;;;16.48;4.00;;;11.20;99.90;;;;;;4989431;28;20425;-76
2022/11/25 12:59:52;;;;;;;12.68;3.15;;;11.30;99.90;;;;;;4990710;28;20770;-77
2022/11/25 13:03:15;;;;;;;15.33;3.70;;;11.30;99.90;;;;;;4989869;28;20493;-78
2022/11/25 13:06:12;;;;;;;23.08;5.47;;;11.20;99.90;;;;;;4910344;29;20431;-79
2022/11/25 13:09:04;;;;;;;14.23;3.58;;;11.30;99.90;;;;;;4910823;29;21065;-76
2022/11/25 13:11:38;;;;;;;19.35;3.75;;;11.30;99.90;;;;;;4936638;28;20441;-77
2022/11/25 13:14:24;;;;;;;17.48;4.07;;;11.30;99.90;;;;;;4990354;28;20421;-78
2022/11/25 13:16:51;;;;;;;19.70;4.60;;;11.40;99.90;;;;;;4989036;28;20878;-78